Time;durP1;ratioP1;P1;durP2;ratioP2;P2;SDS_P1;SDS_P2;PMS_P1;PMS_P2;Temp;Humidity;BMP_temperature;BMP_pressure;BME280_temperature;BME280_humidity;BME280_pressure;Samples;Min_cycle;Max_cycle;Signal;HPM_P1;HPM_P2
2022/02/13 00:00:11;;;;;;;48.72;15.63;;;;;;;-2.80;95.84;99132.97;5085478;28;20032;-69
2022/02/13 00:02:38;;;;;;;22.67;11.23;;;;;;;-2.86;95.54;99136.19;5086089;28;20029;-69
2022/02/13 00:05:04;;;;;;;27.33;12.07;;;;;;;-2.99;95.21;99131.38;5085621;28;20342;-69
2022/02/13 00:07:30;;;;;;;31.55;13.95;;;;;;;-3.02;95.98;99120.06;5085454;28;20029;-69
2022/02/13 00:09:56;;;;;;;24.45;11.57;;;;;;;-3.01;96.17;99116.69;5085578;28;20036;-69
2022/02/13 00:12:21;;;;;;;21.15;11.80;;;;;;;-3.02;96.93;99110.63;5085020;28;20378;-69
2022/02/13 00:14:47;;;;;;;19.73;8.98;;;;;;;-2.99;97.42;99125.31;5085279;28;20016;-69
2022/02/13 00:17:12;;;;;;;21.08;10.23;;;;;;;-2.92;96.83;99122.19;5084987;28;20032;-69
2022/02/13 00:19:38;;;;;;;18.10;9.23;;;;;;;-3.03;96.27;99113.16;5085597;28;20039;-69
2022/02/13 00:22:03;;;;;;;34.50;9.00;;;;;;;-3.04;95.85;99119.13;5085579;28;20410;-68
2022/02/13 00:24:30;;;;;;;20.77;10.57;;;;;;;-3.09;96.02;99124.09;5085564;28;20024;-68
2022/02/13 00:26:55;;;;;;;14.82;7.75;;;;;;;-3.12;96.42;99115.34;5084840;28;20021;-69
2022/02/13 00:29:21;;;;;;;11.55;6.75;;;;;;;-3.14;96.47;99119.53;5085985;28;20021;-68
2022/02/13 00:31:46;;;;;;;27.92;9.88;;;;;;;-3.11;96.68;99119.66;5085069;28;20037;-69
2022/02/13 00:34:12;;;;;;;15.65;7.60;;;;;;;-3.09;96.33;99112.91;5085875;28;20043;-69
2022/02/13 00:36:37;;;;;;;22.60;8.02;;;;;;;-3.07;95.81;99106.13;5085769;28;20044;-69
2022/02/13 00:39:03;;;;;;;20.02;9.35;;;;;;;-3.04;96.11;99106.25;5087615;28;20031;-69
2022/02/13 00:41:29;;;;;;;23.60;12.25;;;;;;;-3.04;95.11;99099.38;5089826;28;20297;-69
2022/02/13 00:43:54;;;;;;;34.25;12.40;;;;;;;-3.11;94.75;99094.81;5088245;28;20027;-69
2022/02/13 00:46:20;;;;;;;25.48;12.15;;;;;;;-3.08;94.82;99104.34;5089280;28;20320;-69
2022/02/13 00:48:45;;;;;;;24.95;9.98;;;;;;;-3.14;94.50;99104.09;5089671;28;20021;-69
2022/02/13 00:51:11;;;;;;;23.25;9.88;;;;;;;-3.17;95.09;99103.97;5089735;28;20024;-69
2022/02/13 00:53:36;;;;;;;18.45;10.80;;;;;;;-3.22;94.73;99100.34;5089569;28;20047;-69
2022/02/13 00:56:02;;;;;;;18.33;8.73;;;;;;;-3.26;94.50;99093.31;5089290;28;20055;-69
2022/02/13 00:58:28;;;;;;;15.63;7.70;;;;;;;-3.19;94.71;99100.47;5088999;28;20027;-69
2022/02/13 01:00:54;;;;;;;16.50;8.73;;;;;;;-3.13;94.74;99099.00;5089648;28;20047;-69
2022/02/13 01:03:20;;;;;;;15.60;8.88;;;;;;;-3.16;94.91;99096.31;5089115;28;20021;-69
2022/02/13 01:05:45;;;;;;;18.13;7.88;;;;;;;-3.18;94.92;99099.63;5089431;28;20123;-68
2022/02/13 01:08:11;;;;;;;20.15;8.05;;;;;;;-3.14;95.12;99088.66;5088352;28;20016;-69
2022/02/13 01:10:37;;;;;;;18.80;7.05;;;;;;;-3.21;94.78;99089.22;5089121;28;20091;-69
2022/02/13 01:13:02;;;;;;;17.25;9.05;;;;;;;-3.28;94.78;99082.06;5088559;28;20035;-69
2022/02/13 01:15:28;;;;;;;21.63;7.43;;;;;;;-3.20;94.85;99078.13;5088646;28;20020;-69
2022/02/13 01:17:54;;;;;;;11.55;7.05;;;;;;;-3.18;94.55;99079.06;5088553;28;20020;-69
2022/02/13 01:20:20;;;;;;;19.52;8.05;;;;;;;-3.20;94.36;99088.44;5088633;28;20066;-69
2022/02/13 01:22:45;;;;;;;16.10;7.72;;;;;;;-3.24;94.54;99081.38;5089023;28;20028;-69
2022/02/13 01:25:11;;;;;;;16.30;6.18;;;;;;;-3.28;94.97;99076.91;5088639;28;20040;-68
2022/02/13 01:27:36;;;;;;;17.05;7.22;;;;;;;-3.29;95.03;99073.44;5088889;28;20087;-69
2022/02/13 01:30:03;;;;;;;11.75;6.97;;;;;;;-3.20;94.45;99075.56;5088378;28;20035;-69
2022/02/13 01:32:28;;;;;;;8.98;5.82;;;;;;;-3.24;94.05;99077.09;5087601;28;20024;-69
2022/02/13 01:34:54;;;;;;;11.20;6.20;;;;;;;-3.24;94.34;99076.22;5087771;28;20020;-69
2022/02/13 01:37:19;;;;;;;15.45;6.45;;;;;;;-3.23;94.60;99070.28;5086963;28;20043;-69
2022/02/13 01:39:47;;;;;;;24.35;6.75;;;;;;;-3.26;94.55;99073.59;5087256;28;20069;-69
2022/02/13 01:42:15;;;;;;;12.13;4.97;;;;;;;-3.14;94.60;99074.09;5087965;28;20029;-69
2022/02/13 01:44:41;;;;;;;17.92;6.05;;;;;;;-3.08;94.38;99073.44;5087387;28;20083;-68
2022/02/13 01:47:07;;;;;;;10.68;5.88;;;;;;;-3.13;93.48;99069.84;5087154;28;20051;-68
2022/02/13 01:49:32;;;;;;;12.38;6.22;;;;;;;-3.15;93.88;99066.31;5086901;28;20020;-69
2022/02/13 01:52:01;;;;;;;12.20;6.32;;;;;;;-3.25;93.70;99069.31;5087526;28;20367;-69
2022/02/13 01:54:27;;;;;;;17.42;7.10;;;;;;;-3.32;93.51;99064.75;5087314;28;20366;-69
2022/02/13 01:56:53;;;;;;;15.50;7.40;;;;;;;-3.37;94.33;99063.66;5087074;28;20051;-69
2022/02/13 01:59:18;;;;;;;33.00;9.13;;;;;;;-3.51;93.94;99069.94;5087007;28;20028;-69
2022/02/13 02:01:44;;;;;;;17.33;7.57;;;;;;;-3.50;94.92;99061.41;5087431;28;20020;-69
2022/02/13 02:04:10;;;;;;;15.52;7.00;;;;;;;-3.41;96.17;99061.78;5086775;28;20025;-69
2022/02/13 02:06:36;;;;;;;13.85;7.63;;;;;;;-3.41;96.20;99052.38;5087235;28;20027;-69
2022/02/13 02:09:03;;;;;;;14.90;7.40;;;;;;;-3.36;95.86;99052.59;5087124;28;20075;-69
2022/02/13 02:11:28;;;;;;;20.75;8.05;;;;;;;-3.44;95.81;99059.09;5087031;28;20024;-69
2022/02/13 02:13:54;;;;;;;11.75;6.13;;;;;;;-3.40;95.49;99063.53;5086851;28;20021;-69
2022/02/13 02:16:19;;;;;;;12.48;6.30;;;;;;;-3.42;94.77;99060.91;5087183;28;20046;-69
2022/02/13 02:18:45;;;;;;;16.88;5.35;;;;;;;-3.45;94.33;99059.91;5086690;28;20177;-69
2022/02/13 02:21:10;;;;;;;12.68;5.95;;;;;;;-3.49;94.43;99053.75;5086606;28;20358;-69
2022/02/13 02:23:39;;;;;;;13.68;6.85;;;;;;;-3.51;94.59;99059.66;5086969;28;20020;-69
2022/02/13 02:26:09;;;;;;;8.63;4.88;;;;;;;-3.57;94.27;99049.09;5085271;28;20328;-69
2022/02/13 02:28:34;;;;;;;8.57;5.95;;;;;;;-3.51;94.04;99049.38;5084537;28;20024;-69
2022/02/13 02:31:00;;;;;;;15.43;6.65;;;;;;;-3.52;94.33;99042.44;5041083;28;1307973;-69
2022/02/13 02:33:27;;;;;;;11.68;6.68;;;;;;;-3.47;94.03;99038.38;5087380;28;20312;-69
2022/02/13 02:35:53;;;;;;;14.68;5.32;;;;;;;-3.53;94.00;99040.69;5087163;28;20040;-69
2022/02/13 02:38:18;;;;;;;14.82;5.55;;;;;;;-3.65;94.29;99024.75;5087385;28;20312;-69
2022/02/13 02:40:44;;;;;;;14.15;6.32;;;;;;;-3.69;94.69;99028.00;5087351;28;20058;-69
2022/02/13 02:43:10;;;;;;;17.67;7.97;;;;;;;-3.69;95.43;99030.56;5087303;28;20312;-69
2022/02/13 02:45:35;;;;;;;10.45;5.97;;;;;;;-3.67;95.21;99031.53;5087396;28;20209;-69
2022/02/13 02:48:01;;;;;;;15.20;7.18;;;;;;;-3.61;96.01;99027.50;5087386;28;20024;-69
2022/02/13 02:50:27;;;;;;;12.88;6.30;;;;;;;-3.50;95.63;99033.09;5087397;28;20016;-69
2022/02/13 02:52:53;;;;;;;11.80;4.65;;;;;;;-3.47;95.13;99030.66;5087088;28;20320;-69
2022/02/13 02:55:18;;;;;;;15.48;6.18;;;;;;;-3.54;94.58;99028.66;5087125;28;20058;-69
2022/02/13 02:57:43;;;;;;;10.23;6.68;;;;;;;-3.57;95.12;99023.38;5087397;28;20224;-69
2022/02/13 03:00:10;;;;;;;15.95;7.82;;;;;;;-3.53;95.92;99020.13;5086482;28;20016;-69
2022/02/13 03:02:36;;;;;;;21.98;7.03;;;;;;;-3.43;95.54;99015.41;5086150;28;20024;-69
2022/02/13 03:05:02;;;;;;;17.70;7.18;;;;;;;-3.42;94.90;99011.16;5086998;28;20089;-69
2022/02/13 03:07:28;;;;;;;13.95;6.70;;;;;;;-3.47;94.83;99015.22;5086754;28;20016;-69
2022/02/13 03:09:54;;;;;;;13.70;5.60;;;;;;;-3.53;94.63;98999.53;5086570;28;20023;-69
2022/02/13 03:12:19;;;;;;;14.18;7.40;;;;;;;-3.48;94.63;99008.34;5086712;28;20020;-69
2022/02/13 03:14:44;;;;;;;9.95;5.55;;;;;;;-3.50;94.86;99010.84;5086873;28;20029;-69
2022/02/13 03:17:10;;;;;;;11.45;6.13;;;;;;;-3.53;94.32;99009.81;5086357;28;20049;-69
2022/02/13 03:19:36;;;;;;;13.13;6.10;;;;;;;-3.56;94.00;99004.56;5086558;28;20236;-69
2022/02/13 03:22:03;;;;;;;14.52;6.03;;;;;;;-3.54;93.75;99002.94;5086594;28;20036;-69
2022/02/13 03:24:28;;;;;;;15.63;7.38;;;;;;;-3.65;94.33;99005.06;5086726;28;20016;-69
2022/02/13 03:26:54;;;;;;;14.23;5.47;;;;;;;-3.62;94.00;98999.16;5086671;28;20024;-69
2022/02/13 03:29:19;;;;;;;13.88;6.60;;;;;;;-3.62;94.30;99004.28;5086557;28;20017;-69
2022/02/13 03:31:45;;;;;;;17.08;7.57;;;;;;;-3.67;94.02;99006.66;5086427;28;20040;-69
2022/02/13 03:34:10;;;;;;;19.85;6.90;;;;;;;-3.56;94.14;99001.97;5086315;28;20016;-69
2022/02/13 03:36:36;;;;;;;16.08;6.30;;;;;;;-3.58;93.49;99001.06;5086315;28;20100;-69
2022/02/13 03:39:04;;;;;;;14.10;7.03;;;;;;;-3.61;93.48;98995.78;5086367;28;20043;-69
2022/02/13 03:41:29;;;;;;;12.00;6.20;;;;;;;-3.66;93.93;98997.28;5086223;28;20017;-69
2022/02/13 03:43:55;;;;;;;10.45;5.82;;;;;;;-3.72;94.05;98989.31;5086108;28;20107;-69
2022/02/13 03:46:20;;;;;;;22.08;7.90;;;;;;;-3.61;93.88;99000.94;5085957;28;20043;-69
2022/02/13 03:48:46;;;;;;;36.60;6.97;;;;;;;-3.53;93.86;98989.25;5086502;28;20016;-69
2022/02/13 03:51:11;;;;;;;13.48;7.03;;;;;;;-3.53;93.56;98989.25;5086704;28;20022;-69
2022/02/13 03:53:37;;;;;;;19.17;6.65;;;;;;;-3.65;93.93;98984.47;5085953;28;20021;-69
2022/02/13 03:56:02;;;;;;;13.60;6.57;;;;;;;-3.65;94.48;98983.59;5086314;28;20201;-69
2022/02/13 03:58:27;;;;;;;8.15;5.90;;;;;;;-3.61;93.87;98988.94;5085687;28;20320;-69
2022/02/13 04:00:53;;;;;;;13.35;5.38;;;;;;;-3.68;93.70;98983.47;5085350;28;20338;-69
2022/02/13 04:03:18;;;;;;;17.33;5.57;;;;;;;-3.67;93.85;98980.09;5084686;28;20028;-69
2022/02/13 04:05:44;;;;;;;16.45;7.30;;;;;;;-3.62;94.51;98983.72;5084361;28;20013;-69
2022/02/13 04:08:09;;;;;;;11.70;5.82;;;;;;;-3.72;93.97;98982.47;5084437;28;20012;-69
2022/02/13 04:10:34;;;;;;;11.07;6.38;;;;;;;-3.69;94.84;98977.47;5083817;28;20047;-69
2022/02/13 04:13:00;;;;;;;12.30;4.72;;;;;;;-3.61;94.47;98975.22;5084134;28;20070;-68
2022/02/13 04:15:26;;;;;;;17.73;5.90;;;;;;;-3.80;93.18;98967.56;5079511;28;20028;-68
2022/02/13 04:17:52;;;;;;;13.30;6.20;;;;;;;-3.83;93.53;98967.41;5083841;28;20043;-69
2022/02/13 04:20:18;;;;;;;12.15;6.20;;;;;;;-3.74;94.44;98963.53;5083520;28;20016;-68
2022/02/13 04:22:43;;;;;;;11.20;5.53;;;;;;;-3.66;94.59;98961.28;5084298;28;20216;-68
2022/02/13 04:25:09;;;;;;;15.10;6.82;;;;;;;-3.72;94.23;98959.34;5083749;28;20020;-68
2022/02/13 04:27:36;;;;;;;10.43;5.18;;;;;;;-3.68;94.12;98952.59;5084064;28;20039;-68
2022/02/13 04:30:02;;;;;;;14.43;6.32;;;;;;;-3.68;93.50;98955.16;5084015;28;20012;-68
2022/02/13 04:32:28;;;;;;;11.05;5.45;;;;;;;-3.72;93.62;98958.44;5083750;28;20033;-68
2022/02/13 04:34:53;;;;;;;8.18;4.90;;;;;;;-3.64;93.40;98951.94;5083936;28;20021;-68
2022/02/13 04:37:19;;;;;;;15.10;4.93;;;;;;;-3.77;93.45;98947.09;5083640;28;20012;-68
2022/02/13 04:39:44;;;;;;;10.65;4.65;;;;;;;-3.74;93.66;98952.38;5083567;28;20040;-68
2022/02/13 04:42:11;;;;;;;15.43;6.35;;;;;;;-3.71;93.80;98947.31;5083901;28;20031;-68
2022/02/13 04:44:37;;;;;;;9.50;5.38;;;;;;;-3.79;93.58;98951.31;5083933;28;20020;-68
2022/02/13 04:47:02;;;;;;;12.20;5.80;;;;;;;-3.69;94.27;98945.72;5083801;28;20021;-68
2022/02/13 04:49:28;;;;;;;13.57;5.22;;;;;;;-3.86;93.87;98941.59;5083835;28;20185;-69
2022/02/13 04:51:53;;;;;;;15.30;5.82;;;;;;;-3.84;94.07;98945.97;5084246;28;20023;-69
2022/02/13 04:54:19;;;;;;;11.85;6.28;;;;;;;-3.87;94.98;98944.94;5084438;28;20231;-69
2022/02/13 04:56:44;;;;;;;9.05;5.63;;;;;;;-3.84;95.49;98942.50;5083838;28;20080;-69
2022/02/13 04:59:10;;;;;;;16.92;5.57;;;;;;;-3.93;95.27;98944.72;5083996;28;20017;-69
2022/02/13 05:01:36;;;;;;;12.50;4.05;;;;;;;-3.84;95.79;98945.06;5083709;28;20024;-69
2022/02/13 05:04:01;;;;;;;22.52;7.10;;;;;;;-3.78;96.06;98930.78;5083521;28;20335;-69
2022/02/13 05:06:26;;;;;;;17.20;7.28;;;;;;;-3.80;95.59;98929.84;5083691;28;20039;-69
2022/02/13 05:08:53;;;;;;;9.13;5.78;;;;;;;-3.76;95.94;98933.44;5083944;28;20123;-69
2022/02/13 05:11:19;;;;;;;27.88;8.13;;;;;;;-3.68;95.84;98919.16;5084084;28;20016;-69
2022/02/13 05:13:44;;;;;;;15.65;6.40;;;;;;;-3.71;94.76;98916.47;5084276;28;20063;-69
2022/02/13 05:16:09;;;;;;;22.60;7.82;;;;;;;-3.65;94.44;98911.56;5084082;28;20017;-68
2022/02/13 05:18:35;;;;;;;15.93;7.30;;;;;;;-3.57;94.87;98907.63;5083660;28;20013;-68
2022/02/13 05:21:00;;;;;;;15.95;6.93;;;;;;;-3.47;94.44;98902.91;5083819;28;20012;-68
2022/02/13 05:23:26;;;;;;;9.07;5.20;;;;;;;-3.47;94.64;98908.06;5083797;28;20088;-69
2022/02/13 05:25:51;;;;;;;12.70;6.53;;;;;;;-3.59;94.26;98896.38;5086451;28;20212;-69
2022/02/13 05:28:17;;;;;;;14.27;7.25;;;;;;;-3.63;94.50;98889.38;5087134;28;20080;-69
2022/02/13 05:30:42;;;;;;;16.98;7.57;;;;;;;-3.55;95.21;98893.16;5086975;28;20062;-69
2022/02/13 05:33:07;;;;;;;20.52;5.93;;;;;;;-3.49;94.45;98888.22;5087189;28;20309;-68
2022/02/13 05:35:33;;;;;;;16.98;7.68;;;;;;;-3.52;94.03;98880.38;5086997;28;20048;-68
2022/02/13 05:37:59;;;;;;;17.83;7.82;;;;;;;-3.48;94.25;98877.13;5086974;28;20300;-68
2022/02/13 05:40:24;;;;;;;20.13;9.27;;;;;;;-3.46;94.63;98872.91;5086875;28;20046;-68
2022/02/13 05:42:49;;;;;;;41.70;15.20;;;;;;;-3.48;94.81;98870.25;5086589;28;20036;-68
2022/02/13 05:45:15;;;;;;;58.95;26.35;;;;;;;-3.53;94.10;98876.94;5086318;28;20066;-68
2022/02/13 05:47:41;;;;;;;56.42;17.40;;;;;;;-3.50;94.73;98877.06;5086792;28;20024;-68
2022/02/13 05:50:08;;;;;;;31.00;14.40;;;;;;;-3.48;95.08;98874.56;5087479;28;20024;-68
2022/02/13 05:52:33;;;;;;;17.98;9.50;;;;;;;-3.41;94.63;98879.13;5083386;28;20197;-68
2022/02/13 05:54:59;;;;;;;18.70;8.77;;;;;;;-3.34;95.75;98878.53;5086655;28;20059;-68
2022/02/13 05:57:24;;;;;;;20.10;9.80;;;;;;;-3.22;95.55;98869.59;5087195;28;20012;-68
2022/02/13 05:59:49;;;;;;;35.10;12.18;;;;;;;-3.08;95.62;98863.25;5086305;28;20019;-68
2022/02/13 06:02:15;;;;;;;26.20;9.23;;;;;;;-3.04;95.40;98859.09;5086098;28;20016;-68
2022/02/13 06:04:40;;;;;;;18.08;9.18;;;;;;;-2.93;95.23;98852.63;5086683;28;20024;-69
2022/02/13 06:07:06;;;;;;;24.15;11.00;;;;;;;-2.83;95.79;98849.56;5086942;28;20013;-69
2022/02/13 06:09:31;;;;;;;17.35;8.75;;;;;;;-2.78;95.84;98842.88;5086848;28;20200;-69
2022/02/13 06:11:56;;;;;;;20.17;9.32;;;;;;;-2.69;96.17;98850.94;5086598;28;20016;-69
2022/02/13 06:14:22;;;;;;;23.63;9.05;;;;;;;-2.64;96.21;98851.97;5086686;28;20016;-69
2022/02/13 06:16:47;;;;;;;19.15;7.65;;;;;;;-2.41;97.28;98851.06;5086315;28;20023;-69
2022/02/13 06:19:13;;;;;;;8.75;5.78;;;;;;;-2.14;98.91;98845.97;5086808;28;20038;-69
2022/02/13 06:21:38;;;;;;;18.60;6.68;;;;;;;-1.79;100.00;98848.88;5086412;28;20096;-69
2022/02/13 06:24:04;;;;;;;18.08;9.48;;;;;;;-1.74;100.00;98847.31;5086295;28;20197;-69
2022/02/13 06:26:33;;;;;;;30.40;8.85;;;;;;;-1.89;98.72;98844.25;5086624;28;20027;-69
2022/02/13 06:28:59;;;;;;;16.30;9.02;;;;;;;-1.84;98.63;98840.09;5086743;28;20051;-69
2022/02/13 06:31:24;;;;;;;14.48;7.47;;;;;;;-1.90;97.81;98839.91;5085695;28;20044;-69
2022/02/13 06:33:50;;;;;;;18.45;8.52;;;;;;;-1.84;98.21;98834.94;5086180;28;20016;-69
2022/02/13 06:36:15;;;;;;;15.55;7.82;;;;;;;-1.88;97.20;98837.38;5083675;28;20016;-69
2022/02/13 06:38:40;;;;;;;15.55;7.43;;;;;;;-1.89;96.65;98833.94;5085923;28;20016;-69
2022/02/13 06:41:06;;;;;;;19.98;9.50;;;;;;;-2.04;95.71;98838.59;5085558;28;20050;-69
2022/02/13 06:43:33;;;;;;;14.27;7.03;;;;;;;-1.88;97.45;98827.06;5085467;28;20039;-69
2022/02/13 06:45:58;;;;;;;18.52;7.82;;;;;;;-1.80;97.70;98823.03;5085959;28;20046;-69
2022/02/13 06:48:28;;;;;;;26.15;8.50;;;;;;;-1.97;96.27;98825.06;5086011;28;20028;-69
2022/02/13 06:50:54;;;;;;;28.73;10.85;;;;;;;-2.04;94.91;98825.69;5085652;28;20039;-69
2022/02/13 06:53:19;;;;;;;25.65;11.88;;;;;;;-2.06;95.15;98829.91;5085431;28;20031;-69
2022/02/13 06:55:45;;;;;;;27.25;12.48;;;;;;;-2.09;94.92;98824.66;5085233;28;20046;-69
2022/02/13 06:58:10;;;;;;;22.98;9.25;;;;;;;-1.87;96.46;98832.25;5085501;28;20031;-69
2022/02/13 07:00:40;;;;;;;15.73;7.47;;;;;;;-1.71;98.29;98839.66;5085654;28;20053;-69
2022/02/13 07:03:06;;;;;;;18.58;9.73;;;;;;;-1.79;97.37;98833.41;5086097;28;20028;-69
2022/02/13 07:05:32;;;;;;;23.92;12.23;;;;;;;-1.83;96.07;98834.13;5085672;28;20024;-69
2022/02/13 07:07:57;;;;;;;15.63;8.30;;;;;;;-1.69;96.41;98832.84;5085055;28;20027;-69
2022/02/13 07:10:22;;;;;;;17.55;8.80;;;;;;;-1.65;96.44;98834.69;5085433;28;20212;-69
2022/02/13 07:12:48;;;;;;;21.65;9.30;;;;;;;-1.59;96.72;98834.88;5085791;28;20012;-69
2022/02/13 07:15:13;;;;;;;26.95;11.80;;;;;;;-1.62;95.38;98832.22;5085674;28;20091;-69
2022/02/13 07:17:39;;;;;;;29.25;9.90;;;;;;;-1.58;95.49;98836.63;5085241;28;20016;-69
2022/02/13 07:20:05;;;;;;;21.80;9.88;;;;;;;-1.46;96.09;98837.00;5083441;28;20036;-69
2022/02/13 07:22:31;;;;;;;31.63;11.35;;;;;;;-1.42;95.95;98831.13;5084084;28;20031;-69
2022/02/13 07:24:56;;;;;;;24.75;12.10;;;;;;;-1.27;95.94;98829.00;5084534;28;20020;-69
2022/02/13 07:27:22;;;;;;;27.98;12.80;;;;;;;-1.33;94.79;98822.78;5083182;28;20012;-69
2022/02/13 07:29:47;;;;;;;31.02;11.82;;;;;;;-1.25;95.29;98827.34;5084539;28;20020;-69
2022/02/13 07:32:13;;;;;;;25.77;11.60;;;;;;;-0.95;97.73;98828.22;5083857;28;20048;-69
2022/02/13 07:34:38;;;;;;;20.02;9.00;;;;;;;-0.60;98.94;98826.63;5083609;28;20095;-69
2022/02/13 07:37:04;;;;;;;19.73;7.28;;;;;;;-0.10;100.00;98827.09;5083562;28;20023;-69
2022/02/13 07:39:33;;;;;;;16.25;6.03;;;;;;;0.35;100.00;98822.19;5083234;28;20024;-69
2022/02/13 07:41:59;;;;;;;16.50;7.65;;;;;;;0.92;100.00;98818.28;5083810;28;20025;-69
2022/02/13 07:44:26;;;;;;;28.98;9.32;;;;;;;1.34;100.00;98823.47;5083511;28;20079;-69
2022/02/13 07:46:52;;;;;;;19.30;6.47;;;;;;;1.63;100.00;98812.81;5083460;28;20029;-69
2022/02/13 07:49:18;;;;;;;18.25;9.18;;;;;;;1.93;100.00;98815.06;5083585;28;20035;-69
2022/02/13 07:51:43;;;;;;;14.13;7.88;;;;;;;2.43;100.00;98816.75;5083864;28;20028;-68
2022/02/13 07:54:09;;;;;;;17.60;9.60;;;;;;;2.71;100.00;98808.50;5084785;28;20020;-68
2022/02/13 07:56:35;;;;;;;18.48;8.63;;;;;;;2.97;100.00;98807.13;5084232;28;20024;-68
2022/02/13 07:59:00;;;;;;;26.00;9.55;;;;;;;3.23;99.68;98802.28;5084393;28;20232;-68
2022/02/13 08:01:26;;;;;;;17.48;8.63;;;;;;;3.46;98.44;98806.00;5083704;28;20024;-68
2022/02/13 08:03:52;;;;;;;17.67;8.30;;;;;;;3.67;97.82;98809.72;5083865;28;20036;-68
2022/02/13 08:06:18;;;;;;;15.45;7.85;;;;;;;3.96;96.58;98803.06;5084213;28;20031;-68
2022/02/13 08:08:53;;;;;;;22.45;8.60;;;;;;;4.30;94.98;98804.22;5084337;28;20013;-68
2022/02/13 08:11:19;;;;;;;15.68;7.63;;;;;;;4.42;93.75;98799.97;5084394;28;20070;-68
2022/02/13 08:13:46;;;;;;;32.05;9.32;;;;;;;4.90;91.98;98798.56;5084980;28;20016;-68
2022/02/13 08:16:11;;;;;;;34.45;7.82;;;;;;;5.06;90.74;98805.59;5084917;28;20283;-68
2022/02/13 08:18:39;;;;;;;27.42;11.25;;;;;;;5.11;90.08;98798.66;5084928;28;20070;-68
2022/02/13 08:21:08;;;;;;;18.40;7.10;;;;;;;5.43;88.71;98797.03;5085098;28;20021;-68
2022/02/13 08:23:34;;;;;;;26.95;9.35;;;;;;;5.60;88.15;98800.59;5085113;28;20016;-68
2022/02/13 08:26:00;;;;;;;18.42;8.07;;;;;;;5.89;87.28;98798.94;5085180;28;20024;-68
2022/02/13 08:28:26;;;;;;;20.02;7.65;;;;;;;6.75;84.31;98797.19;5085377;28;20016;-68
2022/02/13 08:30:51;;;;;;;20.00;7.55;;;;;;;7.56;80.10;98794.28;5084867;28;20089;-68
2022/02/13 08:33:17;;;;;;;14.45;6.68;;;;;;;8.28;76.67;98780.75;5085029;28;20027;-68
2022/02/13 08:35:43;;;;;;;28.90;7.65;;;;;;;8.94;73.79;98789.75;5084945;28;20351;-68
2022/02/13 08:38:08;;;;;;;27.55;7.78;;;;;;;9.43;71.19;98787.44;5085017;28;20048;-68
2022/02/13 08:40:34;;;;;;;22.98;6.78;;;;;;;9.74;70.20;98786.13;5084917;28;20071;-68
2022/02/13 08:43:01;;;;;;;12.25;6.55;;;;;;;10.16;68.40;98790.84;5085086;28;20242;-69
2022/02/13 08:45:27;;;;;;;11.65;5.88;;;;;;;10.43;66.42;98779.84;5085107;28;20379;-69
2022/02/13 08:47:53;;;;;;;18.20;7.13;;;;;;;10.65;65.74;98770.72;5085400;28;20247;-69
2022/02/13 08:50:19;;;;;;;15.43;6.55;;;;;;;10.91;63.79;98768.47;5085386;28;20020;-69
2022/02/13 08:52:44;;;;;;;18.17;7.63;;;;;;;11.08;63.73;98770.78;5085579;28;20055;-69
2022/02/13 08:55:13;;;;;;;11.15;5.82;;;;;;;11.75;61.58;98766.78;5085719;28;20379;-69
2022/02/13 08:57:39;;;;;;;14.60;7.72;;;;;;;11.79;60.36;98762.28;5085873;28;20020;-69
2022/02/13 09:00:06;;;;;;;16.20;7.05;;;;;;;11.67;60.30;98757.31;5088118;28;20358;-69
2022/02/13 09:02:32;;;;;;;15.63;6.80;;;;;;;11.53;60.12;98797.09;5090558;28;20431;-69
2022/02/13 09:04:58;;;;;;;16.75;7.50;;;;;;;11.95;59.51;98811.16;5090744;28;20044;-69
2022/02/13 09:07:23;;;;;;;20.35;7.90;;;;;;;12.00;58.99;98852.41;5090668;28;20023;-69
2022/02/13 09:09:48;;;;;;;15.02;6.97;;;;;;;11.63;59.57;98803.97;5089965;28;20212;-69
2022/02/13 09:12:19;;;;;;;24.70;8.32;;;;;;;11.82;59.41;98789.47;5090203;28;20020;-68
2022/02/13 09:14:45;;;;;;;18.60;7.28;;;;;;;12.43;57.83;98768.69;5090327;28;20028;-68
2022/02/13 09:17:10;;;;;;;14.65;7.07;;;;;;;12.41;56.79;98753.78;5090381;28;20032;-68
2022/02/13 09:19:36;;;;;;;16.55;6.70;;;;;;;12.18;57.99;98746.41;5090308;28;20025;-68
2022/02/13 09:22:01;;;;;;;19.85;6.82;;;;;;;12.17;58.31;98749.97;5090014;28;20025;-68
2022/02/13 09:24:27;;;;;;;20.77;7.45;;;;;;;12.45;57.07;98750.16;5089762;28;20028;-68
2022/02/13 09:26:52;;;;;;;20.98;8.68;;;;;;;12.23;58.09;98734.00;5090339;28;20025;-68
2022/02/13 09:29:18;;;;;;;19.85;7.95;;;;;;;12.71;56.63;98735.41;5090130;28;20020;-68
2022/02/13 09:31:43;;;;;;;20.27;7.40;;;;;;;12.67;55.97;98725.81;5089982;28;20071;-68
2022/02/13 09:34:12;;;;;;;16.80;7.50;;;;;;;12.94;56.13;98729.47;5090094;28;20048;-68
2022/02/13 09:36:38;;;;;;;18.92;7.72;;;;;;;12.75;55.94;98733.53;5089910;28;20035;-68
2022/02/13 09:39:03;;;;;;;18.05;7.90;;;;;;;12.38;57.16;98725.72;5089852;28;20121;-68
2022/02/13 09:41:29;;;;;;;21.08;7.38;;;;;;;12.61;56.65;98726.00;5089711;28;20050;-68
2022/02/13 09:43:56;;;;;;;21.63;7.18;;;;;;;12.92;56.16;98720.75;5089795;28;20028;-68
2022/02/13 09:46:23;;;;;;;16.65;6.68;;;;;;;12.88;55.84;98727.03;5089998;28;20368;-68
2022/02/13 09:48:51;;;;;;;13.90;6.68;;;;;;;13.32;55.54;98728.47;5089604;28;20020;-68
2022/02/13 09:51:17;;;;;;;19.25;6.97;;;;;;;13.10;55.12;98719.41;5089533;28;20024;-68
2022/02/13 09:53:42;;;;;;;16.38;6.55;;;;;;;13.31;54.63;98713.50;5089690;28;20035;-68
2022/02/13 09:56:08;;;;;;;15.80;6.50;;;;;;;12.90;54.83;98715.50;5089159;28;20020;-68
2022/02/13 09:58:34;;;;;;;13.95;6.40;;;;;;;12.82;55.58;98709.56;5089163;28;20029;-68
2022/02/13 10:01:02;;;;;;;14.77;6.80;;;;;;;12.95;55.80;98710.94;5089370;28;20139;-68
2022/02/13 10:03:35;;;;;;;20.17;7.13;;;;;;;12.92;55.43;98708.38;5089390;28;20028;-68
2022/02/13 10:06:10;;;;;;;17.67;6.68;;;;;;;13.26;55.28;98705.72;5089228;28;20020;-68
2022/02/13 10:08:36;;;;;;;21.63;6.65;;;;;;;12.85;55.83;98703.34;5089331;28;20031;-68
2022/02/13 10:11:18;;;;;;;13.75;7.22;;;;;;;12.60;57.01;98697.81;5089527;28;20101;-68
2022/02/13 10:13:55;;;;;;;19.33;7.82;;;;;;;12.63;56.82;98703.03;5089819;28;20043;-68
2022/02/13 10:16:29;;;;;;;15.82;6.28;;;;;;;12.34;56.42;98702.91;5089018;28;20024;-68
2022/02/13 10:19:12;;;;;;;16.83;6.32;;;;;;;12.95;56.17;98695.09;5089237;28;20020;-68
2022/02/13 10:21:39;;;;;;;20.63;7.50;;;;;;;12.95;56.29;98695.09;5089252;28;20323;-68
2022/02/13 10:24:18;;;;;;;18.67;6.95;;;;;;;12.75;56.54;98693.91;5088894;28;20216;-68
2022/02/13 10:26:46;;;;;;;19.45;6.80;;;;;;;12.90;56.71;98702.31;5089150;28;20016;-68
2022/02/13 10:29:12;;;;;;;21.73;7.35;;;;;;;12.83;56.31;98695.47;5089159;28;20016;-68
2022/02/13 10:31:39;;;;;;;18.42;7.13;;;;;;;12.87;56.74;98694.47;5089132;28;20102;-68
2022/02/13 10:34:04;;;;;;;15.77;7.00;;;;;;;12.89;56.13;98692.66;5089250;28;20319;-68
2022/02/13 10:36:37;;;;;;;18.13;7.20;;;;;;;12.81;56.79;98689.34;5089134;28;20024;-68
2022/02/13 10:39:15;;;;;;;14.88;6.55;;;;;;;12.48;57.76;98671.78;5088553;28;20088;-68
2022/02/13 10:41:41;;;;;;;17.15;6.38;;;;;;;12.46;59.45;98670.94;5089444;28;20024;-68
2022/02/13 10:44:08;;;;;;;17.73;6.65;;;;;;;12.11;58.50;98668.31;5089297;28;20261;-68
2022/02/13 10:46:41;;;;;;;13.38;5.80;;;;;;;12.38;57.89;98665.00;5089097;28;20061;-68
2022/02/13 10:49:09;;;;;;;14.23;6.47;;;;;;;12.17;58.93;98660.25;5088620;28;20024;-68
2022/02/13 10:51:36;;;;;;;17.13;6.38;;;;;;;12.21;58.43;98655.78;5088695;28;20024;-68
2022/02/13 10:54:02;;;;;;;12.45;6.18;;;;;;;12.00;58.94;98636.09;5088513;28;20297;-68
2022/02/13 10:56:28;;;;;;;17.45;6.30;;;;;;;12.14;59.19;98644.50;5088442;28;20024;-68
2022/02/13 10:58:55;;;;;;;17.08;6.57;;;;;;;12.39;57.82;98645.59;5088415;28;20028;-68
2022/02/13 11:01:23;;;;;;;15.77;6.55;;;;;;;12.36;58.51;98639.53;5087377;28;20020;-68
2022/02/13 11:03:50;;;;;;;13.30;7.10;;;;;;;12.31;57.18;98637.00;5084890;28;20087;-68
2022/02/13 11:06:16;;;;;;;15.13;5.88;;;;;;;12.02;58.93;98628.97;5088856;28;20246;-68
2022/02/13 11:08:50;;;;;;;23.58;6.45;;;;;;;11.98;59.28;98627.34;5086015;28;20416;-68
2022/02/13 11:11:18;;;;;;;17.45;6.65;;;;;;;12.20;58.60;98622.38;5086184;28;20012;-68
2022/02/13 11:13:44;;;;;;;15.57;5.90;;;;;;;12.17;57.90;98611.88;5085883;28;20016;-68
2022/02/13 11:16:32;;;;;;;16.70;6.25;;;;;;;12.34;57.38;98607.06;5085692;28;20020;-68
2022/02/13 11:19:01;;;;;;;9.73;4.93;;;;;;;12.62;57.97;98606.25;5083579;28;20338;-68